sensor_id;sensor_type;location;lat;lon;timestamp;P1;durP1;ratioP1;P2;durP2;ratioP2
67191;SDS011;54120;53.504;49.426;2022-07-23T00:00:57;7.45;;;4.82;;
67191;SDS011;54120;53.504;49.426;2022-07-23T00:03:23;8.57;;;5.35;;
67191;SDS011;54120;53.504;49.426;2022-07-23T00:05:50;7.60;;;5.00;;
67191;SDS011;54120;53.504;49.426;2022-07-23T00:08:16;11.95;;;5.10;;
67191;SDS011;54120;53.504;49.426;2022-07-23T00:10:42;11.40;;;5.35;;
67191;SDS011;54120;53.504;49.426;2022-07-23T00:13:08;11.43;;;5.45;;
67191;SDS011;54120;53.504;49.426;2022-07-23T00:15:34;12.43;;;7.00;;
67191;SDS011;54120;53.504;49.426;2022-07-23T00:18:01;18.75;;;9.45;;
67191;SDS011;54120;53.504;49.426;2022-07-23T00:20:27;19.40;;;9.88;;
67191;SDS011;54120;53.504;49.426;2022-07-23T00:22:54;40.90;;;17.67;;
67191;SDS011;54120;53.504;49.426;2022-07-23T00:25:23;65.20;;;29.52;;
67191;SDS011;54120;53.504;49.426;2022-07-23T00:27:50;81.18;;;31.98;;
67191;SDS011;54120;53.504;49.426;2022-07-23T00:30:16;88.82;;;36.95;;
67191;SDS011;54120;53.504;49.426;2022-07-23T00:32:46;101.88;;;36.78;;
67191;SDS011;54120;53.504;49.426;2022-07-23T00:35:14;72.18;;;28.83;;
67191;SDS011;54120;53.504;49.426;2022-07-23T00:37:41;55.60;;;18.77;;
67191;SDS011;54120;53.504;49.426;2022-07-23T00:40:07;56.58;;;17.10;;
67191;SDS011;54120;53.504;49.426;2022-07-23T00:42:36;59.38;;;16.42;;
67191;SDS011;54120;53.504;49.426;2022-07-23T00:45:03;56.38;;;17.80;;
67191;SDS011;54120;53.504;49.426;2022-07-23T00:47:29;51.05;;;15.52;;
67191;SDS011;54120;53.504;49.426;2022-07-23T00:49:56;45.22;;;12.68;;
67191;SDS011;54120;53.504;49.426;2022-07-23T00:52:22;32.45;;;8.63;;
67191;SDS011;54120;53.504;49.426;2022-07-23T00:54:48;42.42;;;8.60;;
67191;SDS011;54120;53.504;49.426;2022-07-23T00:57:14;34.70;;;8.48;;
67191;SDS011;54120;53.504;49.426;2022-07-23T00:59:41;23.23;;;7.50;;
67191;SDS011;54120;53.504;49.426;2022-07-23T01:02:07;31.90;;;7.80;;
67191;SDS011;54120;53.504;49.426;2022-07-23T01:04:33;33.92;;;7.18;;
67191;SDS011;54120;53.504;49.426;2022-07-23T01:07:00;23.10;;;5.38;;
67191;SDS011;54120;53.504;49.426;2022-07-23T01:09:26;30.13;;;7.00;;
67191;SDS011;54120;53.504;49.426;2022-07-23T01:11:54;28.60;;;7.60;;
67191;SDS011;54120;53.504;49.426;2022-07-23T01:14:20;29.38;;;6.60;;
67191;SDS011;54120;53.504;49.426;2022-07-23T01:16:47;22.65;;;6.18;;
67191;SDS011;54120;53.504;49.426;2022-07-23T01:19:14;22.35;;;6.25;;
67191;SDS011;54120;53.504;49.426;2022-07-23T01:21:46;14.65;;;4.78;;
67191;SDS011;54120;53.504;49.426;2022-07-23T01:24:13;15.00;;;4.63;;
67191;SDS011;54120;53.504;49.426;2022-07-23T01:26:43;19.33;;;4.72;;
67191;SDS011;54120;53.504;49.426;2022-07-23T01:29:10;19.25;;;4.47;;
67191;SDS011;54120;53.504;49.426;2022-07-23T01:31:36;27.48;;;6.43;;
67191;SDS011;54120;53.504;49.426;2022-07-23T01:34:02;17.38;;;4.90;;
67191;SDS011;54120;53.504;49.426;2022-07-23T01:36:29;15.85;;;4.50;;
67191;SDS011;54120;53.504;49.426;2022-07-23T01:38:56;15.57;;;3.80;;
67191;SDS011;54120;53.504;49.426;2022-07-23T01:41:22;17.17;;;4.22;;
67191;SDS011;54120;53.504;49.426;2022-07-23T01:43:48;17.17;;;4.13;;
67191;SDS011;54120;53.504;49.426;2022-07-23T01:46:14;17.27;;;5.07;;
67191;SDS011;54120;53.504;49.426;2022-07-23T01:48:40;13.55;;;4.25;;
67191;SDS011;54120;53.504;49.426;2022-07-23T01:51:06;13.38;;;5.07;;
67191;SDS011;54120;53.504;49.426;2022-07-23T01:53:32;15.13;;;4.88;;
67191;SDS011;54120;53.504;49.426;2022-07-23T01:55:59;17.02;;;5.05;;
67191;SDS011;54120;53.504;49.426;2022-07-23T01:58:26;9.93;;;4.13;;
67191;SDS011;54120;53.504;49.426;2022-07-23T02:00:53;4.20;;;3.40;;
67191;SDS011;54120;53.504;49.426;2022-07-23T02:03:20;13.98;;;3.80;;
67191;SDS011;54120;53.504;49.426;2022-07-23T02:05:47;4.55;;;3.40;;
67191;SDS011;54120;53.504;49.426;2022-07-23T02:08:14;9.77;;;3.75;;
67191;SDS011;54120;53.504;49.426;2022-07-23T02:10:40;6.65;;;3.10;;
67191;SDS011;54120;53.504;49.426;2022-07-23T02:13:07;10.65;;;4.20;;
67191;SDS011;54120;53.504;49.426;2022-07-23T02:15:33;5.63;;;3.38;;
67191;SDS011;54120;53.504;49.426;2022-07-23T02:18:00;5.68;;;3.40;;
67191;SDS011;54120;53.504;49.426;2022-07-23T02:20:26;8.60;;;4.10;;
67191;SDS011;54120;53.504;49.426;2022-07-23T02:22:52;8.45;;;4.30;;
67191;SDS011;54120;53.504;49.426;2022-07-23T02:25:18;9.50;;;3.13;;
67191;SDS011;54120;53.504;49.426;2022-07-23T02:27:44;7.75;;;3.67;;
67191;SDS011;54120;53.504;49.426;2022-07-23T02:30:11;6.55;;;3.13;;
67191;SDS011;54120;53.504;49.426;2022-07-23T02:32:37;5.93;;;3.30;;
67191;SDS011;54120;53.504;49.426;2022-07-23T02:35:05;8.73;;;3.70;;
67191;SDS011;54120;53.504;49.426;2022-07-23T02:37:31;9.73;;;4.05;;
67191;SDS011;54120;53.504;49.426;2022-07-23T02:39:58;15.50;;;4.32;;
67191;SDS011;54120;53.504;49.426;2022-07-23T02:42:24;16.50;;;5.43;;
67191;SDS011;54120;53.504;49.426;2022-07-23T02:44:51;8.77;;;3.22;;
67191;SDS011;54120;53.504;49.426;2022-07-23T02:47:18;6.70;;;2.72;;
67191;SDS011;54120;53.504;49.426;2022-07-23T02:49:44;5.35;;;2.90;;
67191;SDS011;54120;53.504;49.426;2022-07-23T02:52:10;7.50;;;3.60;;
67191;SDS011;54120;53.504;49.426;2022-07-23T02:54:36;7.25;;;5.40;;
67191;SDS011;54120;53.504;49.426;2022-07-23T02:57:03;15.65;;;5.90;;
67191;SDS011;54120;53.504;49.426;2022-07-23T02:59:30;5.97;;;4.05;;
67191;SDS011;54120;53.504;49.426;2022-07-23T03:01:56;4.18;;;3.78;;
67191;SDS011;54120;53.504;49.426;2022-07-23T03:04:22;5.32;;;3.75;;
67191;SDS011;54120;53.504;49.426;2022-07-23T03:06:49;3.72;;;3.22;;
67191;SDS011;54120;53.504;49.426;2022-07-23T03:09:15;4.32;;;3.10;;
67191;SDS011;54120;53.504;49.426;2022-07-23T03:11:41;6.90;;;4.47;;
67191;SDS011;54120;53.504;49.426;2022-07-23T03:14:07;8.77;;;5.30;;
67191;SDS011;54120;53.504;49.426;2022-07-23T03:16:33;6.65;;;5.15;;
67191;SDS011;54120;53.504;49.426;2022-07-23T03:18:59;9.77;;;5.32;;
67191;SDS011;54120;53.504;49.426;2022-07-23T03:21:26;10.35;;;7.00;;
67191;SDS011;54120;53.504;49.426;2022-07-23T03:23:52;10.40;;;6.10;;
67191;SDS011;54120;53.504;49.426;2022-07-23T03:26:18;8.40;;;4.80;;
67191;SDS011;54120;53.504;49.426;2022-07-23T03:28:44;10.88;;;6.63;;
67191;SDS011;54120;53.504;49.426;2022-07-23T03:31:10;12.27;;;7.03;;
67191;SDS011;54120;53.504;49.426;2022-07-23T03:33:37;11.10;;;7.72;;
67191;SDS011;54120;53.504;49.426;2022-07-23T03:36:03;8.07;;;6.18;;
67191;SDS011;54120;53.504;49.426;2022-07-23T03:38:29;19.00;;;8.35;;
67191;SDS011;54120;53.504;49.426;2022-07-23T03:40:55;13.45;;;8.57;;
67191;SDS011;54120;53.504;49.426;2022-07-23T03:43:21;12.02;;;7.97;;
67191;SDS011;54120;53.504;49.426;2022-07-23T03:45:49;11.00;;;6.70;;
67191;SDS011;54120;53.504;49.426;2022-07-23T03:48:15;10.63;;;6.28;;
67191;SDS011;54120;53.504;49.426;2022-07-23T03:50:42;8.13;;;6.53;;
67191;SDS011;54120;53.504;49.426;2022-07-23T03:53:08;8.60;;;6.07;;
67191;SDS011;54120;53.504;49.426;2022-07-23T03:55:34;26.25;;;7.32;;
67191;SDS011;54120;53.504;49.426;2022-07-23T03:58:00;12.18;;;7.97;;
67191;SDS011;54120;53.504;49.426;2022-07-23T04:00:27;20.95;;;9.27;;
67191;SDS011;54120;53.504;49.426;2022-07-23T04:02:53;14.43;;;9.80;;
67191;SDS011;54120;53.504;49.426;2022-07-23T04:05:19;15.48;;;8.45;;
67191;SDS011;54120;53.504;49.426;2022-07-23T04:07:46;14.25;;;9.85;;
67191;SDS011;54120;53.504;49.426;2022-07-23T04:10:12;14.90;;;9.57;;
67191;SDS011;54120;53.504;49.426;2022-07-23T04:12:38;13.68;;;10.25;;
67191;SDS011;54120;53.504;49.426;2022-07-23T04:15:04;14.05;;;9.13;;
67191;SDS011;54120;53.504;49.426;2022-07-23T04:17:33;11.68;;;8.57;;
67191;SDS011;54120;53.504;49.426;2022-07-23T04:19:59;9.48;;;6.43;;
67191;SDS011;54120;53.504;49.426;2022-07-23T04:22:25;12.13;;;7.20;;
67191;SDS011;54120;53.504;49.426;2022-07-23T04:24:52;13.95;;;7.45;;
67191;SDS011;54120;53.504;49.426;2022-07-23T04:27:18;11.88;;;7.10;;
67191;SDS011;54120;53.504;49.426;2022-07-23T04:29:44;13.15;;;6.93;;
67191;SDS011;54120;53.504;49.426;2022-07-23T04:32:10;15.15;;;7.53;;
67191;SDS011;54120;53.504;49.426;2022-07-23T04:34:36;10.73;;;6.50;;
67191;SDS011;54120;53.504;49.426;2022-07-23T04:37:02;9.25;;;5.63;;
67191;SDS011;54120;53.504;49.426;2022-07-23T04:39:28;7.90;;;5.68;;
67191;SDS011;54120;53.504;49.426;2022-07-23T04:41:55;9.95;;;5.40;;
67191;SDS011;54120;53.504;49.426;2022-07-23T04:44:21;8.60;;;5.75;;
67191;SDS011;54120;53.504;49.426;2022-07-23T04:46:47;11.65;;;5.63;;
67191;SDS011;54120;53.504;49.426;2022-07-23T04:49:13;9.35;;;5.53;;
67191;SDS011;54120;53.504;49.426;2022-07-23T04:51:39;10.88;;;5.57;;
67191;SDS011;54120;53.504;49.426;2022-07-23T04:54:05;13.52;;;6.30;;
67191;SDS011;54120;53.504;49.426;2022-07-23T04:56:31;9.70;;;5.97;;
67191;SDS011;54120;53.504;49.426;2022-07-23T04:58:58;9.75;;;6.15;;
67191;SDS011;54120;53.504;49.426;2022-07-23T05:01:24;10.48;;;6.43;;
67191;SDS011;54120;53.504;49.426;2022-07-23T05:03:50;12.02;;;5.57;;
67191;SDS011;54120;53.504;49.426;2022-07-23T05:06:16;10.48;;;6.05;;
67191;SDS011;54120;53.504;49.426;2022-07-23T05:08:42;11.88;;;5.70;;
67191;SDS011;54120;53.504;49.426;2022-07-23T05:11:09;7.35;;;4.97;;
67191;SDS011;54120;53.504;49.426;2022-07-23T05:13:35;7.10;;;4.72;;
67191;SDS011;54120;53.504;49.426;2022-07-23T05:16:01;12.98;;;4.80;;
67191;SDS011;54120;53.504;49.426;2022-07-23T05:18:27;11.48;;;4.72;;
67191;SDS011;54120;53.504;49.426;2022-07-23T05:20:53;7.07;;;3.83;;
67191;SDS011;54120;53.504;49.426;2022-07-23T05:23:19;8.48;;;4.65;;
67191;SDS011;54120;53.504;49.426;2022-07-23T05:25:46;7.80;;;4.20;;
67191;SDS011;54120;53.504;49.426;2022-07-23T05:28:12;7.38;;;4.18;;
67191;SDS011;54120;53.504;49.426;2022-07-23T05:30:38;3.70;;;3.33;;
67191;SDS011;54120;53.504;49.426;2022-07-23T05:33:04;5.03;;;3.58;;
67191;SDS011;54120;53.504;49.426;2022-07-23T05:35:32;4.65;;;3.10;;
67191;SDS011;54120;53.504;49.426;2022-07-23T05:37:58;5.82;;;3.35;;
67191;SDS011;54120;53.504;49.426;2022-07-23T05:40:24;4.68;;;3.38;;
67191;SDS011;54120;53.504;49.426;2022-07-23T05:42:50;5.82;;;2.95;;
67191;SDS011;54120;53.504;49.426;2022-07-23T05:45:16;5.13;;;3.58;;
67191;SDS011;54120;53.504;49.426;2022-07-23T05:47:43;5.68;;;3.20;;
67191;SDS011;54120;53.504;49.426;2022-07-23T05:50:12;5.57;;;3.17;;
67191;SDS011;54120;53.504;49.426;2022-07-23T05:52:39;4.30;;;2.97;;
67191;SDS011;54120;53.504;49.426;2022-07-23T05:55:07;6.15;;;3.45;;
67191;SDS011;54120;53.504;49.426;2022-07-23T05:57:36;5.35;;;3.47;;
67191;SDS011;54120;53.504;49.426;2022-07-23T06:00:03;5.38;;;3.80;;
67191;SDS011;54120;53.504;49.426;2022-07-23T06:02:30;4.25;;;3.63;;
67191;SDS011;54120;53.504;49.426;2022-07-23T06:04:57;5.35;;;4.13;;
67191;SDS011;54120;53.504;49.426;2022-07-23T06:07:23;7.97;;;4.07;;
67191;SDS011;54120;53.504;49.426;2022-07-23T06:09:49;5.80;;;3.92;;
67191;SDS011;54120;53.504;49.426;2022-07-23T06:12:16;5.30;;;3.88;;
67191;SDS011;54120;53.504;49.426;2022-07-23T06:14:42;8.93;;;4.10;;
67191;SDS011;54120;53.504;49.426;2022-07-23T06:17:09;3.90;;;3.50;;
67191;SDS011;54120;53.504;49.426;2022-07-23T06:19:35;9.73;;;3.67;;
67191;SDS011;54120;53.504;49.426;2022-07-23T06:22:01;5.18;;;3.70;;
67191;SDS011;54120;53.504;49.426;2022-07-23T06:24:27;6.13;;;3.75;;
67191;SDS011;54120;53.504;49.426;2022-07-23T06:26:53;10.98;;;4.28;;
67191;SDS011;54120;53.504;49.426;2022-07-23T06:29:20;10.18;;;4.90;;
67191;SDS011;54120;53.504;49.426;2022-07-23T06:31:46;11.52;;;4.10;;
67191;SDS011;54120;53.504;49.426;2022-07-23T06:34:12;5.35;;;3.60;;
67191;SDS011;54120;53.504;49.426;2022-07-23T06:36:38;4.65;;;4.22;;
67191;SDS011;54120;53.504;49.426;2022-07-23T06:39:04;6.50;;;4.03;;
67191;SDS011;54120;53.504;49.426;2022-07-23T06:41:30;5.57;;;2.70;;
67191;SDS011;54120;53.504;49.426;2022-07-23T06:43:56;3.72;;;3.42;;
67191;SDS011;54120;53.504;49.426;2022-07-23T06:46:22;4.78;;;3.30;;
67191;SDS011;54120;53.504;49.426;2022-07-23T06:48:48;5.35;;;3.22;;
67191;SDS011;54120;53.504;49.426;2022-07-23T06:51:14;5.50;;;3.35;;
67191;SDS011;54120;53.504;49.426;2022-07-23T06:53:40;2.72;;;2.53;;
67191;SDS011;54120;53.504;49.426;2022-07-23T06:56:07;3.92;;;2.60;;
67191;SDS011;54120;53.504;49.426;2022-07-23T06:58:33;6.13;;;3.40;;
67191;SDS011;54120;53.504;49.426;2022-07-23T07:00:59;5.07;;;3.00;;
67191;SDS011;54120;53.504;49.426;2022-07-23T07:03:25;2.70;;;2.35;;
67191;SDS011;54120;53.504;49.426;2022-07-23T07:05:51;2.35;;;2.15;;
67191;SDS011;54120;53.504;49.426;2022-07-23T07:08:18;1.90;;;1.70;;
67191;SDS011;54120;53.504;49.426;2022-07-23T07:10:44;3.33;;;2.10;;
67191;SDS011;54120;53.504;49.426;2022-07-23T07:13:10;4.75;;;1.70;;
67191;SDS011;54120;53.504;49.426;2022-07-23T07:15:38;4.28;;;2.25;;
67191;SDS011;54120;53.504;49.426;2022-07-23T07:18:04;9.50;;;2.22;;
67191;SDS011;54120;53.504;49.426;2022-07-23T07:20:30;1.88;;;1.77;;
67191;SDS011;54120;53.504;49.426;2022-07-23T07:22:56;4.90;;;2.00;;
67191;SDS011;54120;53.504;49.426;2022-07-23T07:25:22;6.03;;;2.00;;
67191;SDS011;54120;53.504;49.426;2022-07-23T07:27:48;2.80;;;1.83;;
67191;SDS011;54120;53.504;49.426;2022-07-23T07:30:15;1.88;;;1.67;;
67191;SDS011;54120;53.504;49.426;2022-07-23T07:32:41;2.28;;;1.60;;
67191;SDS011;54120;53.504;49.426;2022-07-23T07:35:08;5.03;;;1.63;;
67191;SDS011;54120;53.504;49.426;2022-07-23T07:37:34;3.50;;;1.63;;
67191;SDS011;54120;53.504;49.426;2022-07-23T07:40:01;3.90;;;1.70;;
67191;SDS011;54120;53.504;49.426;2022-07-23T07:42:29;4.57;;;1.90;;
67191;SDS011;54120;53.504;49.426;2022-07-23T07:44:55;3.70;;;1.90;;
67191;SDS011;54120;53.504;49.426;2022-07-23T07:47:21;2.75;;;1.83;;
67191;SDS011;54120;53.504;49.426;2022-07-23T07:49:47;4.38;;;1.80;;
67191;SDS011;54120;53.504;49.426;2022-07-23T07:52:14;2.40;;;2.20;;
67191;SDS011;54120;53.504;49.426;2022-07-23T07:54:40;2.92;;;1.98;;
67191;SDS011;54120;53.504;49.426;2022-07-23T07:57:06;3.10;;;1.92;;
67191;SDS011;54120;53.504;49.426;2022-07-23T07:59:32;3.63;;;2.15;;
67191;SDS011;54120;53.504;49.426;2022-07-23T08:01:58;3.53;;;2.70;;
67191;SDS011;54120;53.504;49.426;2022-07-23T08:04:24;4.70;;;2.15;;
67191;SDS011;54120;53.504;49.426;2022-07-23T08:06:50;2.60;;;2.17;;
67191;SDS011;54120;53.504;49.426;2022-07-23T08:09:17;4.00;;;2.70;;
67191;SDS011;54120;53.504;49.426;2022-07-23T08:11:43;4.43;;;2.40;;
67191;SDS011;54120;53.504;49.426;2022-07-23T08:14:09;4.50;;;2.08;;
67191;SDS011;54120;53.504;49.426;2022-07-23T08:16:36;3.22;;;1.65;;
67191;SDS011;54120;53.504;49.426;2022-07-23T08:19:03;3.75;;;1.48;;
67191;SDS011;54120;53.504;49.426;2022-07-23T08:21:29;2.58;;;1.55;;
67191;SDS011;54120;53.504;49.426;2022-07-23T08:23:55;7.57;;;1.90;;
67191;SDS011;54120;53.504;49.426;2022-07-23T08:26:21;7.35;;;2.10;;
67191;SDS011;54120;53.504;49.426;2022-07-23T08:28:47;2.70;;;1.48;;
67191;SDS011;54120;53.504;49.426;2022-07-23T08:31:13;2.72;;;1.50;;
67191;SDS011;54120;53.504;49.426;2022-07-23T08:33:42;4.63;;;1.55;;
67191;SDS011;54120;53.504;49.426;2022-07-23T08:36:08;4.38;;;1.30;;
67191;SDS011;54120;53.504;49.426;2022-07-23T08:38:34;11.48;;;2.10;;
67191;SDS011;54120;53.504;49.426;2022-07-23T08:41:01;7.68;;;2.45;;
67191;SDS011;54120;53.504;49.426;2022-07-23T08:43:31;2.55;;;1.98;;
67191;SDS011;54120;53.504;49.426;2022-07-23T08:45:59;8.82;;;2.30;;
67191;SDS011;54120;53.504;49.426;2022-07-23T08:48:30;3.47;;;2.40;;
67191;SDS011;54120;53.504;49.426;2022-07-23T08:50:59;6.70;;;2.55;;
67191;SDS011;54120;53.504;49.426;2022-07-23T08:53:27;2.85;;;1.90;;
67191;SDS011;54120;53.504;49.426;2022-07-23T08:55:55;4.40;;;1.90;;
67191;SDS011;54120;53.504;49.426;2022-07-23T08:58:23;4.30;;;2.08;;
67191;SDS011;54120;53.504;49.426;2022-07-23T09:00:49;4.57;;;2.10;;
67191;SDS011;54120;53.504;49.426;2022-07-23T09:03:20;6.57;;;1.88;;
67191;SDS011;54120;53.504;49.426;2022-07-23T09:05:51;4.47;;;1.70;;
67191;SDS011;54120;53.504;49.426;2022-07-23T09:08:20;1.55;;;1.30;;
67191;SDS011;54120;53.504;49.426;2022-07-23T09:10:54;6.80;;;1.98;;
67191;SDS011;54120;53.504;49.426;2022-07-23T09:16:05;4.13;;;1.10;;
67191;SDS011;54120;53.504;49.426;2022-07-23T09:18:39;5.13;;;1.30;;
67191;SDS011;54120;53.504;49.426;2022-07-23T09:21:24;1.63;;;1.20;;
67191;SDS011;54120;53.504;49.426;2022-07-23T09:24:03;1.55;;;1.13;;
67191;SDS011;54120;53.504;49.426;2022-07-23T09:26:40;4.43;;;1.30;;
67191;SDS011;54120;53.504;49.426;2022-07-23T09:29:25;6.55;;;1.98;;
67191;SDS011;54120;53.504;49.426;2022-07-23T09:31:52;2.70;;;1.30;;
67191;SDS011;54120;53.504;49.426;2022-07-23T09:34:21;3.60;;;1.50;;
67191;SDS011;54120;53.504;49.426;2022-07-23T09:37:19;3.35;;;1.60;;
67191;SDS011;54120;53.504;49.426;2022-07-23T09:39:46;4.20;;;1.65;;
67191;SDS011;54120;53.504;49.426;2022-07-23T09:44:45;2.33;;;1.50;;
67191;SDS011;54120;53.504;49.426;2022-07-23T09:47:16;1.50;;;1.40;;
67191;SDS011;54120;53.504;49.426;2022-07-23T09:49:58;2.97;;;1.50;;
67191;SDS011;54120;53.504;49.426;2022-07-23T09:52:32;2.95;;;1.60;;
67191;SDS011;54120;53.504;49.426;2022-07-23T09:57:28;2.78;;;1.63;;
67191;SDS011;54120;53.504;49.426;2022-07-23T09:59:57;3.38;;;1.50;;
67191;SDS011;54120;53.504;49.426;2022-07-23T10:02:25;2.08;;;1.50;;
67191;SDS011;54120;53.504;49.426;2022-07-23T10:04:54;1.90;;;1.80;;
67191;SDS011;54120;53.504;49.426;2022-07-23T10:07:23;3.97;;;2.33;;
67191;SDS011;54120;53.504;49.426;2022-07-23T10:09:52;2.63;;;2.17;;
67191;SDS011;54120;53.504;49.426;2022-07-23T10:12:19;3.10;;;1.80;;
67191;SDS011;54120;53.504;49.426;2022-07-23T10:14:59;4.32;;;2.10;;
67191;SDS011;54120;53.504;49.426;2022-07-23T10:17:29;3.67;;;2.00;;
67191;SDS011;54120;53.504;49.426;2022-07-23T10:19:56;2.47;;;1.70;;
67191;SDS011;54120;53.504;49.426;2022-07-23T10:22:23;2.35;;;1.80;;
67191;SDS011;54120;53.504;49.426;2022-07-23T10:25:09;5.15;;;1.80;;
67191;SDS011;54120;53.504;49.426;2022-07-23T10:38:54;6.55;;;3.95;;
67191;SDS011;54120;53.504;49.426;2022-07-23T10:41:11;7.90;;;4.68;;
67191;SDS011;54120;53.504;49.426;2022-07-23T10:43:38;6.47;;;4.18;;
67191;SDS011;54120;53.504;49.426;2022-07-23T10:46:23;10.30;;;4.55;;
67191;SDS011;54120;53.504;49.426;2022-07-23T10:57:17;13.63;;;4.97;;
67191;SDS011;54120;53.504;49.426;2022-07-23T11:02:39;8.73;;;4.15;;
67191;SDS011;54120;53.504;49.426;2022-07-23T11:05:19;7.00;;;3.70;;
67191;SDS011;54120;53.504;49.426;2022-07-23T11:10:55;5.97;;;3.15;;
67191;SDS011;54120;53.504;49.426;2022-07-23T11:23:59;8.15;;;3.55;;
67191;SDS011;54120;53.504;49.426;2022-07-23T11:26:42;5.13;;;3.67;;
67191;SDS011;54120;53.504;49.426;2022-07-23T11:32:11;3.42;;;2.50;;
67191;SDS011;54120;53.504;49.426;2022-07-23T11:34:53;4.45;;;2.45;;
67191;SDS011;54120;53.504;49.426;2022-07-23T11:37:33;6.43;;;2.53;;
67191;SDS011;54120;53.504;49.426;2022-07-23T11:40:06;6.05;;;2.50;;
67191;SDS011;54120;53.504;49.426;2022-07-23T11:42:36;4.13;;;2.97;;
67191;SDS011;54120;53.504;49.426;2022-07-23T11:45:04;3.15;;;2.58;;
67191;SDS011;54120;53.504;49.426;2022-07-23T11:47:31;4.05;;;2.95;;
67191;SDS011;54120;53.504;49.426;2022-07-23T11:49:59;3.92;;;2.70;;
67191;SDS011;54120;53.504;49.426;2022-07-23T11:52:27;5.47;;;3.10;;
67191;SDS011;54120;53.504;49.426;2022-07-23T11:54:58;5.72;;;3.60;;
67191;SDS011;54120;53.504;49.426;2022-07-23T11:57:35;3.83;;;3.33;;
67191;SDS011;54120;53.504;49.426;2022-07-23T12:00:08;7.18;;;3.85;;
67191;SDS011;54120;53.504;49.426;2022-07-23T12:02:42;3.95;;;3.10;;
67191;SDS011;54120;53.504;49.426;2022-07-23T12:05:14;5.32;;;3.20;;
67191;SDS011;54120;53.504;49.426;2022-07-23T12:07:46;4.70;;;3.20;;
67191;SDS011;54120;53.504;49.426;2022-07-23T12:10:23;3.40;;;2.55;;
67191;SDS011;54120;53.504;49.426;2022-07-23T12:15:50;4.82;;;3.10;;
67191;SDS011;54120;53.504;49.426;2022-07-23T12:18:19;3.97;;;2.92;;
67191;SDS011;54120;53.504;49.426;2022-07-23T12:20:50;6.03;;;4.78;;
67191;SDS011;54120;53.504;49.426;2022-07-23T12:23:24;8.13;;;3.65;;
67191;SDS011;54120;53.504;49.426;2022-07-23T12:25:51;3.90;;;3.33;;
67191;SDS011;54120;53.504;49.426;2022-07-23T12:28:26;4.78;;;3.47;;
67191;SDS011;54120;53.504;49.426;2022-07-23T12:30:55;6.72;;;3.75;;
67191;SDS011;54120;53.504;49.426;2022-07-23T12:33:24;6.55;;;3.28;;
67191;SDS011;54120;53.504;49.426;2022-07-23T12:35:55;7.35;;;3.95;;
67191;SDS011;54120;53.504;49.426;2022-07-23T12:38:25;8.93;;;4.47;;
67191;SDS011;54120;53.504;49.426;2022-07-23T12:40:56;7.65;;;4.80;;
67191;SDS011;54120;53.504;49.426;2022-07-23T12:43:26;5.65;;;4.60;;
67191;SDS011;54120;53.504;49.426;2022-07-23T12:46:06;5.93;;;4.38;;
67191;SDS011;54120;53.504;49.426;2022-07-23T12:51:03;4.10;;;3.22;;
67191;SDS011;54120;53.504;49.426;2022-07-23T12:53:31;4.90;;;2.65;;
67191;SDS011;54120;53.504;49.426;2022-07-23T12:56:04;6.18;;;2.50;;
67191;SDS011;54120;53.504;49.426;2022-07-23T13:04:00;3.15;;;2.08;;
67191;SDS011;54120;53.504;49.426;2022-07-23T13:06:31;1.85;;;1.70;;
67191;SDS011;54120;53.504;49.426;2022-07-23T13:09:09;4.47;;;2.00;;
67191;SDS011;54120;53.504;49.426;2022-07-23T13:11:38;3.50;;;2.55;;
67191;SDS011;54120;53.504;49.426;2022-07-23T13:14:05;8.20;;;2.45;;
67191;SDS011;54120;53.504;49.426;2022-07-23T13:16:32;2.42;;;2.22;;
67191;SDS011;54120;53.504;49.426;2022-07-23T13:18:58;4.53;;;2.30;;
67191;SDS011;54120;53.504;49.426;2022-07-23T13:21:26;6.78;;;1.80;;
67191;SDS011;54120;53.504;49.426;2022-07-23T13:23:55;5.40;;;2.00;;
67191;SDS011;54120;53.504;49.426;2022-07-23T13:26:22;5.07;;;2.05;;
67191;SDS011;54120;53.504;49.426;2022-07-23T13:28:48;7.97;;;2.25;;
67191;SDS011;54120;53.504;49.426;2022-07-23T13:31:16;2.22;;;1.92;;
67191;SDS011;54120;53.504;49.426;2022-07-23T13:33:42;2.30;;;2.10;;
67191;SDS011;54120;53.504;49.426;2022-07-23T13:36:08;2.65;;;2.05;;
67191;SDS011;54120;53.504;49.426;2022-07-23T13:38:35;2.05;;;1.80;;
67191;SDS011;54120;53.504;49.426;2022-07-23T13:41:01;2.50;;;2.30;;
67191;SDS011;54120;53.504;49.426;2022-07-23T13:43:28;3.17;;;2.40;;
67191;SDS011;54120;53.504;49.426;2022-07-23T13:45:55;7.55;;;3.90;;
67191;SDS011;54120;53.504;49.426;2022-07-23T13:48:22;10.55;;;4.35;;
67191;SDS011;54120;53.504;49.426;2022-07-23T13:50:49;3.28;;;2.97;;
67191;SDS011;54120;53.504;49.426;2022-07-23T13:53:17;7.20;;;2.80;;
67191;SDS011;54120;53.504;49.426;2022-07-23T13:55:46;4.72;;;2.92;;
67191;SDS011;54120;53.504;49.426;2022-07-23T13:58:13;5.88;;;2.97;;
67191;SDS011;54120;53.504;49.426;2022-07-23T14:00:41;4.38;;;2.63;;
67191;SDS011;54120;53.504;49.426;2022-07-23T14:03:09;6.63;;;3.20;;
67191;SDS011;54120;53.504;49.426;2022-07-23T14:05:36;6.85;;;2.53;;
67191;SDS011;54120;53.504;49.426;2022-07-23T14:08:02;4.07;;;2.63;;
67191;SDS011;54120;53.504;49.426;2022-07-23T14:10:29;5.18;;;2.55;;
67191;SDS011;54120;53.504;49.426;2022-07-23T14:12:56;5.07;;;2.63;;
67191;SDS011;54120;53.504;49.426;2022-07-23T14:15:23;5.05;;;2.72;;
67191;SDS011;54120;53.504;49.426;2022-07-23T14:17:52;5.15;;;2.28;;
67191;SDS011;54120;53.504;49.426;2022-07-23T14:20:19;2.65;;;2.40;;
67191;SDS011;54120;53.504;49.426;2022-07-23T14:22:46;7.03;;;2.20;;
67191;SDS011;54120;53.504;49.426;2022-07-23T14:25:12;3.50;;;2.42;;
67191;SDS011;54120;53.504;49.426;2022-07-23T14:27:39;4.03;;;2.47;;
67191;SDS011;54120;53.504;49.426;2022-07-23T14:30:05;3.70;;;2.67;;
67191;SDS011;54120;53.504;49.426;2022-07-23T14:32:33;4.57;;;2.90;;
67191;SDS011;54120;53.504;49.426;2022-07-23T14:35:00;7.35;;;2.80;;
67191;SDS011;54120;53.504;49.426;2022-07-23T14:37:26;7.95;;;3.05;;
67191;SDS011;54120;53.504;49.426;2022-07-23T14:39:52;5.72;;;3.38;;
67191;SDS011;54120;53.504;49.426;2022-07-23T14:42:18;5.32;;;3.35;;
67191;SDS011;54120;53.504;49.426;2022-07-23T14:44:45;6.28;;;3.60;;
67191;SDS011;54120;53.504;49.426;2022-07-23T14:47:11;5.65;;;3.30;;
67191;SDS011;54120;53.504;49.426;2022-07-23T14:49:37;4.20;;;3.45;;
67191;SDS011;54120;53.504;49.426;2022-07-23T14:52:04;8.80;;;3.60;;
67191;SDS011;54120;53.504;49.426;2022-07-23T14:54:31;5.38;;;3.38;;
67191;SDS011;54120;53.504;49.426;2022-07-23T14:56:58;6.03;;;3.63;;
67191;SDS011;54120;53.504;49.426;2022-07-23T14:59:26;6.22;;;3.13;;
67191;SDS011;54120;53.504;49.426;2022-07-23T15:01:53;7.30;;;3.50;;
67191;SDS011;54120;53.504;49.426;2022-07-23T15:04:20;5.20;;;3.83;;
67191;SDS011;54120;53.504;49.426;2022-07-23T15:06:46;7.60;;;4.38;;
67191;SDS011;54120;53.504;49.426;2022-07-23T15:09:13;7.75;;;3.92;;
67191;SDS011;54120;53.504;49.426;2022-07-23T15:11:40;8.32;;;3.88;;
67191;SDS011;54120;53.504;49.426;2022-07-23T15:14:06;4.28;;;3.85;;
67191;SDS011;54120;53.504;49.426;2022-07-23T15:16:33;6.90;;;4.20;;
67191;SDS011;54120;53.504;49.426;2022-07-23T15:18:59;11.63;;;3.90;;
67191;SDS011;54120;53.504;49.426;2022-07-23T15:21:27;7.85;;;4.35;;
67191;SDS011;54120;53.504;49.426;2022-07-23T15:23:55;4.38;;;3.97;;
67191;SDS011;54120;53.504;49.426;2022-07-23T15:26:27;6.65;;;3.88;;
67191;SDS011;54120;53.504;49.426;2022-07-23T15:28:54;8.85;;;3.75;;
67191;SDS011;54120;53.504;49.426;2022-07-23T15:31:20;10.85;;;4.60;;